Terminal Aerodrome Forecast
Issued by NWS

Home | Current Version | Previous Version | Text Only | Print | Product List | Glossary On
Versions: 1 2 3 4 5 6 7 8 9 10 11 12 13 14
354
FTUS44 KLIX 291140
TAFMSY
TAF
KMSY 291140Z 2912/3012 00000KT P6SM FEW020 SCT250
     FM291600 00000KT P6SM VCSH SCT025 BKN120
     FM291900 20006KT P6SM VCTS SCT030CB BKN100
     FM300000 19004KT P6SM SCT080 BKN250=

USA.gov is the U.S. government's official web portal to all federal, state and local government web resources and services.